Terminal Aerodrome Forecast
Issued by NWS

Home | Current Version | Previous Version | Text Only | Print | Product List | Glossary On
Versions: 1 2 3 4 5 6 7 8 9 10 11 12 13 14 15 16 17 18 19 20 21 22 23 24 25 26 27 28 29 30 31 32 33 34 35 36
000
FTUS44 KHGX 171854 AAB
TAFSGR
TAF AMD
KSGR 171854Z 1719/1818 15008KT P6SM VCTS SCT035CB SCT100 BKN250
      TEMPO 1719/1720 VRB12KT 1/2SM +TSRA FG SCT025CB BKN035
     FM172300 14005KT P6SM VCSH FEW040 BKN100 BKN250
     FM180900 15004KT P6SM VCTS SCT015CB BKN040 BKN250
      TEMPO 1810/1814 VRB15KT 2SM +TSRA SCT008 BKN015CB
     FM181400 11005KT P6SM VCTS BKN025CB BKN250=

USA.gov is the U.S. government's official web portal to all federal, state and local government web resources and services.